Hlavní strana
METAR-TAF:

METAR-TAF

Letiště :

David, Panama

zeměpisná šířka: 08-24N, zeměpisná délka: 082-25W, výška: 29 m

Aktuální stav počasí

Zpráva byla vytvořena před 54 minutami, v 13:00 UTC
vítr z různých směrů 3 kt
Teplota 27°C
Vlhkost vzduchu 94%
Tlak 1010 hPa
Viditelnost 10 km a více
Skoro jasno ve výšce 1800 ft

METAR: MPDA 261300Z VRB03KT 9999 FEW018 27/26 Q1010

Čas: 08:54 (13:54 UTC)

Předpověď počasí

Zpráva byla vytvořena před 1 hodinou a 24 minutami, v 12:30 UTC
Předpověď platná od 26 v 12 UTC do 26 v 24 UTC
Jihojihozápadní vítr 7 kt
Viditelnost 10 km a více
Polojasno ve výšce 1800 ft
Dočasný
od 26 v 12 UTC do 26 v 15 UTC
Západní vítr 4 kt
Pravděpodobnost 40% :
Dočasný
od 26 v 19 UTC do 26 v 23 UTC
Viditelnost: 5000 m
Polojasno ve výšce 1500 ft, Cumulonimbus.
Oblačno až skoro zataženo ve výšce 8000 ft
bouřka, déšť

TAF: MPDA 261230Z 2612/2624 21007KT 9999 SCT018 TEMPO 2612/2615 28004KT PROB40 TEMPO 2619/2623 5000 TSRA SCT015CB BKN080

Stav a předpovědi počasí z více než 4 000 letišť (zprávy METAR a TAF).

Červené a žluté tečky na mapě představují dostupné meteorologické stanice.

Když kurzor umístíte na tečku, zobrazí se název stanice.

Pak kliknutím zobrazíte stav a předpověď počasí.

Chcete-li změnit mapu, kliknutím na zelené tlačítko se znaménkem +mapu přiblížíte, kliknutím na zelené tlačítko se znaménkem – mapu oddálíte a kliknutím na zelené šipky přejdete na sousední mapy.


METAR-TAF: